sensor_id;sensor_type;location;lat;lon;timestamp;P1;durP1;ratioP1;P2;durP2;ratioP2
24090;SDS011;12272;52.426;17.100;2022-12-20T00:04:21;33.83;;;19.87;;
24090;SDS011;12272;52.426;17.100;2022-12-20T00:09:24;39.37;;;21.57;;
24090;SDS011;12272;52.426;17.100;2022-12-20T00:14:26;31.67;;;16.13;;
24090;SDS011;12272;52.426;17.100;2022-12-20T00:19:29;34.07;;;18.37;;
24090;SDS011;12272;52.426;17.100;2022-12-20T00:24:31;32.60;;;19.67;;
24090;SDS011;12272;52.426;17.100;2022-12-20T00:29:34;34.50;;;19.10;;
24090;SDS011;12272;52.426;17.100;2022-12-20T00:34:36;40.00;;;21.30;;
24090;SDS011;12272;52.426;17.100;2022-12-20T00:39:39;33.83;;;20.10;;
24090;SDS011;12272;52.426;17.100;2022-12-20T00:44:41;35.90;;;19.40;;
24090;SDS011;12272;52.426;17.100;2022-12-20T00:49:44;31.40;;;18.43;;
24090;SDS011;12272;52.426;17.100;2022-12-20T00:54:46;45.87;;;22.57;;
24090;SDS011;12272;52.426;17.100;2022-12-20T00:59:49;34.77;;;20.53;;
24090;SDS011;12272;52.426;17.100;2022-12-20T01:04:51;33.20;;;18.33;;
24090;SDS011;12272;52.426;17.100;2022-12-20T01:09:55;38.13;;;20.60;;
24090;SDS011;12272;52.426;17.100;2022-12-20T01:14:57;29.90;;;18.60;;
24090;SDS011;12272;52.426;17.100;2022-12-20T01:20:00;35.90;;;19.70;;
24090;SDS011;12272;52.426;17.100;2022-12-20T01:25:02;36.13;;;20.77;;
24090;SDS011;12272;52.426;17.100;2022-12-20T01:30:05;35.30;;;19.77;;
24090;SDS011;12272;52.426;17.100;2022-12-20T01:35:08;31.83;;;18.73;;
24090;SDS011;12272;52.426;17.100;2022-12-20T01:40:11;29.17;;;17.50;;
24090;SDS011;12272;52.426;17.100;2022-12-20T01:45:15;37.37;;;18.77;;
24090;SDS011;12272;52.426;17.100;2022-12-20T01:50:26;33.07;;;19.37;;
24090;SDS011;12272;52.426;17.100;2022-12-20T01:55:29;33.00;;;19.23;;
24090;SDS011;12272;52.426;17.100;2022-12-20T02:00:32;40.70;;;20.20;;
24090;SDS011;12272;52.426;17.100;2022-12-20T02:05:36;33.73;;;19.13;;
24090;SDS011;12272;52.426;17.100;2022-12-20T02:15:57;39.10;;;19.60;;
24090;SDS011;12272;52.426;17.100;2022-12-20T02:31:24;38.40;;;19.30;;
24090;SDS011;12272;52.426;17.100;2022-12-20T02:36:31;32.03;;;18.13;;
24090;SDS011;12272;52.426;17.100;2022-12-20T02:41:35;34.57;;;20.53;;
24090;SDS011;12272;52.426;17.100;2022-12-20T02:46:43;36.30;;;19.07;;
24090;SDS011;12272;52.426;17.100;2022-12-20T02:51:47;34.03;;;19.80;;
24090;SDS011;12272;52.426;17.100;2022-12-20T02:57:01;30.83;;;17.70;;
24090;SDS011;12272;52.426;17.100;2022-12-20T03:02:11;32.20;;;19.23;;
24090;SDS011;12272;52.426;17.100;2022-12-20T03:07:14;41.60;;;21.00;;
24090;SDS011;12272;52.426;17.100;2022-12-20T03:12:17;29.43;;;17.43;;
24090;SDS011;12272;52.426;17.100;2022-12-20T03:17:20;32.70;;;17.73;;
24090;SDS011;12272;52.426;17.100;2022-12-20T03:22:22;30.43;;;16.90;;
24090;SDS011;12272;52.426;17.100;2022-12-20T03:27:25;30.87;;;18.77;;
24090;SDS011;12272;52.426;17.100;2022-12-20T03:32:30;32.73;;;18.40;;
24090;SDS011;12272;52.426;17.100;2022-12-20T03:37:33;31.50;;;17.13;;
24090;SDS011;12272;52.426;17.100;2022-12-20T03:42:38;28.70;;;17.07;;
24090;SDS011;12272;52.426;17.100;2022-12-20T03:47:40;27.13;;;15.70;;
24090;SDS011;12272;52.426;17.100;2022-12-20T03:52:43;29.50;;;17.03;;
24090;SDS011;12272;52.426;17.100;2022-12-20T03:57:46;30.77;;;17.30;;
24090;SDS011;12272;52.426;17.100;2022-12-20T04:03:00;31.10;;;18.33;;
24090;SDS011;12272;52.426;17.100;2022-12-20T04:08:04;31.17;;;20.13;;
24090;SDS011;12272;52.426;17.100;2022-12-20T04:13:07;30.40;;;18.17;;
24090;SDS011;12272;52.426;17.100;2022-12-20T04:18:10;30.40;;;18.47;;
24090;SDS011;12272;52.426;17.100;2022-12-20T04:23:12;30.00;;;17.80;;
24090;SDS011;12272;52.426;17.100;2022-12-20T04:28:15;33.03;;;16.90;;
24090;SDS011;12272;52.426;17.100;2022-12-20T04:33:17;31.60;;;18.10;;
24090;SDS011;12272;52.426;17.100;2022-12-20T04:38:20;32.10;;;17.77;;
24090;SDS011;12272;52.426;17.100;2022-12-20T04:43:25;32.60;;;18.57;;
24090;SDS011;12272;52.426;17.100;2022-12-20T04:48:31;32.33;;;18.83;;
24090;SDS011;12272;52.426;17.100;2022-12-20T04:53:53;33.13;;;17.90;;
24090;SDS011;12272;52.426;17.100;2022-12-20T04:59:10;27.63;;;18.90;;
24090;SDS011;12272;52.426;17.100;2022-12-20T05:04:16;33.33;;;19.83;;
24090;SDS011;12272;52.426;17.100;2022-12-20T05:09:18;32.50;;;19.23;;
24090;SDS011;12272;52.426;17.100;2022-12-20T05:14:22;29.00;;;16.93;;
24090;SDS011;12272;52.426;17.100;2022-12-20T05:19:25;32.30;;;18.27;;
24090;SDS011;12272;52.426;17.100;2022-12-20T05:24:28;36.47;;;18.73;;
24090;SDS011;12272;52.426;17.100;2022-12-20T05:29:59;30.20;;;19.10;;
24090;SDS011;12272;52.426;17.100;2022-12-20T05:35:03;41.13;;;23.87;;
24090;SDS011;12272;52.426;17.100;2022-12-20T05:40:07;44.10;;;25.27;;
24090;SDS011;12272;52.426;17.100;2022-12-20T05:45:11;51.27;;;29.17;;
24090;SDS011;12272;52.426;17.100;2022-12-20T05:50:33;49.73;;;26.77;;
24090;SDS011;12272;52.426;17.100;2022-12-20T05:56:14;48.90;;;25.40;;
24090;SDS011;12272;52.426;17.100;2022-12-20T06:01:17;36.93;;;21.57;;
24090;SDS011;12272;52.426;17.100;2022-12-20T06:06:20;36.37;;;20.63;;
24090;SDS011;12272;52.426;17.100;2022-12-20T06:11:23;29.13;;;17.53;;
24090;SDS011;12272;52.426;17.100;2022-12-20T06:16:37;35.93;;;20.27;;
24090;SDS011;12272;52.426;17.100;2022-12-20T06:21:41;37.97;;;22.20;;
24090;SDS011;12272;52.426;17.100;2022-12-20T06:26:47;38.80;;;21.67;;
24090;SDS011;12272;52.426;17.100;2022-12-20T06:31:51;16.00;;;9.73;;
24090;SDS011;12272;52.426;17.100;2022-12-20T06:36:56;30.07;;;16.73;;
24090;SDS011;12272;52.426;17.100;2022-12-20T06:42:02;69.27;;;34.57;;
24090;SDS011;12272;52.426;17.100;2022-12-20T06:47:08;70.43;;;36.03;;
24090;SDS011;12272;52.426;17.100;2022-12-20T06:52:13;61.57;;;31.50;;
24090;SDS011;12272;52.426;17.100;2022-12-20T06:57:19;57.63;;;29.77;;
24090;SDS011;12272;52.426;17.100;2022-12-20T07:02:25;56.50;;;30.27;;
24090;SDS011;12272;52.426;17.100;2022-12-20T07:07:29;42.60;;;23.57;;
24090;SDS011;12272;52.426;17.100;2022-12-20T07:12:31;41.07;;;24.10;;
24090;SDS011;12272;52.426;17.100;2022-12-20T07:17:37;38.87;;;24.77;;
24090;SDS011;12272;52.426;17.100;2022-12-20T07:22:39;44.47;;;25.53;;
24090;SDS011;12272;52.426;17.100;2022-12-20T07:28:03;44.87;;;24.93;;
24090;SDS011;12272;52.426;17.100;2022-12-20T07:33:05;49.70;;;26.53;;
24090;SDS011;12272;52.426;17.100;2022-12-20T07:38:08;58.87;;;30.03;;
24090;SDS011;12272;52.426;17.100;2022-12-20T07:43:11;47.17;;;26.03;;
24090;SDS011;12272;52.426;17.100;2022-12-20T07:48:13;51.43;;;25.13;;
24090;SDS011;12272;52.426;17.100;2022-12-20T07:53:22;63.10;;;30.07;;
24090;SDS011;12272;52.426;17.100;2022-12-20T07:58:27;57.40;;;29.40;;
24090;SDS011;12272;52.426;17.100;2022-12-20T08:03:31;54.43;;;27.43;;
24090;SDS011;12272;52.426;17.100;2022-12-20T08:08:41;47.47;;;28.10;;
24090;SDS011;12272;52.426;17.100;2022-12-20T08:13:52;41.00;;;23.57;;
24090;SDS011;12272;52.426;17.100;2022-12-20T08:18:59;34.23;;;19.90;;
24090;SDS011;12272;52.426;17.100;2022-12-20T08:24:01;41.17;;;23.67;;
24090;SDS011;12272;52.426;17.100;2022-12-20T08:29:04;48.90;;;26.77;;
24090;SDS011;12272;52.426;17.100;2022-12-20T08:34:07;47.17;;;26.60;;
24090;SDS011;12272;52.426;17.100;2022-12-20T08:39:11;54.60;;;27.90;;
24090;SDS011;12272;52.426;17.100;2022-12-20T08:44:14;46.57;;;27.50;;
24090;SDS011;12272;52.426;17.100;2022-12-20T08:49:16;48.37;;;26.47;;
24090;SDS011;12272;52.426;17.100;2022-12-20T08:54:23;46.87;;;25.87;;
24090;SDS011;12272;52.426;17.100;2022-12-20T08:59:40;59.10;;;28.87;;
24090;SDS011;12272;52.426;17.100;2022-12-20T09:04:42;42.67;;;23.83;;
24090;SDS011;12272;52.426;17.100;2022-12-20T09:09:45;49.93;;;26.80;;
24090;SDS011;12272;52.426;17.100;2022-12-20T09:14:48;45.83;;;25.43;;
24090;SDS011;12272;52.426;17.100;2022-12-20T09:19:50;39.40;;;23.47;;
24090;SDS011;12272;52.426;17.100;2022-12-20T09:24:53;39.20;;;22.33;;
24090;SDS011;12272;52.426;17.100;2022-12-20T09:29:56;56.37;;;32.13;;
24090;SDS011;12272;52.426;17.100;2022-12-20T09:34:58;50.53;;;27.13;;
24090;SDS011;12272;52.426;17.100;2022-12-20T09:40:01;44.57;;;23.77;;
24090;SDS011;12272;52.426;17.100;2022-12-20T09:45:06;39.97;;;21.83;;
24090;SDS011;12272;52.426;17.100;2022-12-20T09:50:17;44.17;;;26.17;;
24090;SDS011;12272;52.426;17.100;2022-12-20T09:55:33;46.07;;;27.13;;
24090;SDS011;12272;52.426;17.100;2022-12-20T10:00:45;40.23;;;21.50;;
24090;SDS011;12272;52.426;17.100;2022-12-20T10:05:59;39.53;;;21.87;;
24090;SDS011;12272;52.426;17.100;2022-12-20T10:17:03;52.33;;;27.47;;
24090;SDS011;12272;52.426;17.100;2022-12-20T10:22:13;54.33;;;29.83;;
24090;SDS011;12272;52.426;17.100;2022-12-20T10:27:19;46.13;;;25.10;;
24090;SDS011;12272;52.426;17.100;2022-12-20T10:32:22;64.37;;;30.43;;
24090;SDS011;12272;52.426;17.100;2022-12-20T10:37:29;55.83;;;30.80;;
24090;SDS011;12272;52.426;17.100;2022-12-20T10:47:39;43.67;;;25.87;;
24090;SDS011;12272;52.426;17.100;2022-12-20T10:53:00;40.33;;;23.33;;
24090;SDS011;12272;52.426;17.100;2022-12-20T11:03:34;41.67;;;23.53;;
24090;SDS011;12272;52.426;17.100;2022-12-20T11:08:52;45.77;;;24.83;;
24090;SDS011;12272;52.426;17.100;2022-12-20T11:14:12;36.57;;;20.43;;
24090;SDS011;12272;52.426;17.100;2022-12-20T11:19:29;43.90;;;24.90;;
24090;SDS011;12272;52.426;17.100;2022-12-20T11:24:46;42.53;;;24.40;;
24090;SDS011;12272;52.426;17.100;2022-12-20T11:30:06;47.13;;;26.07;;
24090;SDS011;12272;52.426;17.100;2022-12-20T11:45:58;51.53;;;26.30;;
24090;SDS011;12272;52.426;17.100;2022-12-20T11:51:39;50.63;;;28.33;;
24090;SDS011;12272;52.426;17.100;2022-12-20T11:56:45;50.77;;;27.13;;
24090;SDS011;12272;52.426;17.100;2022-12-20T12:01:56;55.57;;;28.30;;
24090;SDS011;12272;52.426;17.100;2022-12-20T12:07:18;52.87;;;27.40;;
24090;SDS011;12272;52.426;17.100;2022-12-20T12:12:29;48.80;;;27.00;;
24090;SDS011;12272;52.426;17.100;2022-12-20T12:17:58;47.03;;;25.60;;
24090;SDS011;12272;52.426;17.100;2022-12-20T12:23:11;55.33;;;29.77;;
24090;SDS011;12272;52.426;17.100;2022-12-20T12:28:31;76.20;;;37.27;;
24090;SDS011;12272;52.426;17.100;2022-12-20T12:33:35;66.13;;;33.50;;
24090;SDS011;12272;52.426;17.100;2022-12-20T12:49:21;45.30;;;26.07;;
24090;SDS011;12272;52.426;17.100;2022-12-20T12:54:35;50.40;;;25.97;;
24090;SDS011;12272;52.426;17.100;2022-12-20T12:59:42;46.90;;;24.93;;
24090;SDS011;12272;52.426;17.100;2022-12-20T13:16:34;34.80;;;19.77;;
24090;SDS011;12272;52.426;17.100;2022-12-20T13:21:57;34.33;;;19.67;;
24090;SDS011;12272;52.426;17.100;2022-12-20T13:27:21;43.73;;;25.03;;
24090;SDS011;12272;52.426;17.100;2022-12-20T13:48:26;52.03;;;27.93;;
24090;SDS011;12272;52.426;17.100;2022-12-20T13:53:34;58.87;;;32.43;;
24090;SDS011;12272;52.426;17.100;2022-12-20T13:58:37;52.13;;;31.23;;
24090;SDS011;12272;52.426;17.100;2022-12-20T14:03:45;61.93;;;31.30;;
24090;SDS011;12272;52.426;17.100;2022-12-20T14:08:50;49.00;;;27.30;;
24090;SDS011;12272;52.426;17.100;2022-12-20T14:13:57;48.73;;;29.23;;
24090;SDS011;12272;52.426;17.100;2022-12-20T14:19:02;55.37;;;29.00;;
24090;SDS011;12272;52.426;17.100;2022-12-20T14:24:10;46.63;;;25.00;;
24090;SDS011;12272;52.426;17.100;2022-12-20T14:29:18;45.03;;;24.83;;
24090;SDS011;12272;52.426;17.100;2022-12-20T14:34:26;44.07;;;22.80;;
24090;SDS011;12272;52.426;17.100;2022-12-20T14:39:36;53.03;;;28.43;;
24090;SDS011;12272;52.426;17.100;2022-12-20T14:44:38;55.77;;;30.70;;
24090;SDS011;12272;52.426;17.100;2022-12-20T14:49:46;58.57;;;32.67;;
24090;SDS011;12272;52.426;17.100;2022-12-20T15:00:24;52.13;;;28.30;;
24090;SDS011;12272;52.426;17.100;2022-12-20T15:10:42;49.53;;;28.87;;
24090;SDS011;12272;52.426;17.100;2022-12-20T15:15:53;58.50;;;28.43;;
24090;SDS011;12272;52.426;17.100;2022-12-20T15:21:06;57.60;;;31.80;;
24090;SDS011;12272;52.426;17.100;2022-12-20T15:26:32;61.67;;;34.63;;
24090;SDS011;12272;52.426;17.100;2022-12-20T15:31:35;52.90;;;28.83;;
24090;SDS011;12272;52.426;17.100;2022-12-20T15:36:38;50.37;;;27.70;;
24090;SDS011;12272;52.426;17.100;2022-12-20T15:41:42;68.40;;;34.30;;
24090;SDS011;12272;52.426;17.100;2022-12-20T15:46:48;58.17;;;32.83;;
24090;SDS011;12272;52.426;17.100;2022-12-20T15:51:51;59.47;;;33.03;;
24090;SDS011;12272;52.426;17.100;2022-12-20T15:56:56;55.23;;;29.40;;
24090;SDS011;12272;52.426;17.100;2022-12-20T16:02:00;53.50;;;30.00;;
24090;SDS011;12272;52.426;17.100;2022-12-20T16:07:02;53.30;;;28.70;;
24090;SDS011;12272;52.426;17.100;2022-12-20T16:12:13;52.17;;;27.93;;
24090;SDS011;12272;52.426;17.100;2022-12-20T16:17:20;56.23;;;31.40;;
24090;SDS011;12272;52.426;17.100;2022-12-20T16:22:23;62.80;;;34.50;;
24090;SDS011;12272;52.426;17.100;2022-12-20T16:27:27;61.87;;;34.87;;
24090;SDS011;12272;52.426;17.100;2022-12-20T16:32:29;73.80;;;37.33;;
24090;SDS011;12272;52.426;17.100;2022-12-20T16:37:33;62.30;;;33.87;;
24090;SDS011;12272;52.426;17.100;2022-12-20T16:42:40;59.73;;;33.07;;
24090;SDS011;12272;52.426;17.100;2022-12-20T16:47:43;55.83;;;31.27;;
24090;SDS011;12272;52.426;17.100;2022-12-20T16:52:47;63.13;;;31.80;;
24090;SDS011;12272;52.426;17.100;2022-12-20T16:57:51;53.53;;;30.13;;
24090;SDS011;12272;52.426;17.100;2022-12-20T17:02:54;63.07;;;31.83;;
24090;SDS011;12272;52.426;17.100;2022-12-20T17:07:58;60.37;;;31.47;;
24090;SDS011;12272;52.426;17.100;2022-12-20T17:13:01;71.30;;;41.70;;
24090;SDS011;12272;52.426;17.100;2022-12-20T17:18:03;74.67;;;41.03;;
24090;SDS011;12272;52.426;17.100;2022-12-20T17:23:07;75.30;;;40.07;;
24090;SDS011;12272;52.426;17.100;2022-12-20T17:28:34;79.97;;;41.60;;
24090;SDS011;12272;52.426;17.100;2022-12-20T17:33:36;76.30;;;41.50;;
24090;SDS011;12272;52.426;17.100;2022-12-20T17:38:39;69.83;;;38.90;;
24090;SDS011;12272;52.426;17.100;2022-12-20T17:43:41;70.97;;;38.53;;
24090;SDS011;12272;52.426;17.100;2022-12-20T17:48:44;72.57;;;40.07;;
24090;SDS011;12272;52.426;17.100;2022-12-20T17:53:49;76.37;;;40.73;;
24090;SDS011;12272;52.426;17.100;2022-12-20T17:58:53;59.83;;;29.07;;
24090;SDS011;12272;52.426;17.100;2022-12-20T18:03:56;59.50;;;30.43;;
24090;SDS011;12272;52.426;17.100;2022-12-20T18:09:11;67.67;;;37.03;;
24090;SDS011;12272;52.426;17.100;2022-12-20T18:14:15;80.20;;;43.17;;
24090;SDS011;12272;52.426;17.100;2022-12-20T18:19:18;74.70;;;40.77;;
24090;SDS011;12272;52.426;17.100;2022-12-20T18:24:21;64.67;;;31.70;;
24090;SDS011;12272;52.426;17.100;2022-12-20T18:29:23;56.37;;;27.40;;
24090;SDS011;12272;52.426;17.100;2022-12-20T18:34:26;53.73;;;26.10;;
24090;SDS011;12272;52.426;17.100;2022-12-20T18:39:28;60.23;;;30.80;;
24090;SDS011;12272;52.426;17.100;2022-12-20T18:44:31;70.50;;;35.23;;
24090;SDS011;12272;52.426;17.100;2022-12-20T18:49:37;52.30;;;27.70;;
24090;SDS011;12272;52.426;17.100;2022-12-20T18:54:39;44.97;;;25.30;;
24090;SDS011;12272;52.426;17.100;2022-12-20T18:59:42;59.50;;;35.10;;
24090;SDS011;12272;52.426;17.100;2022-12-20T19:04:45;64.73;;;36.70;;
24090;SDS011;12272;52.426;17.100;2022-12-20T19:09:47;63.33;;;35.73;;
24090;SDS011;12272;52.426;17.100;2022-12-20T19:14:50;56.97;;;35.80;;
24090;SDS011;12272;52.426;17.100;2022-12-20T19:19:53;60.27;;;34.43;;
24090;SDS011;12272;52.426;17.100;2022-12-20T19:24:55;77.23;;;38.00;;
24090;SDS011;12272;52.426;17.100;2022-12-20T19:29:58;74.23;;;36.60;;
24090;SDS011;12272;52.426;17.100;2022-12-20T19:35:01;62.80;;;33.57;;
24090;SDS011;12272;52.426;17.100;2022-12-20T19:40:24;53.03;;;27.73;;
24090;SDS011;12272;52.426;17.100;2022-12-20T19:45:26;46.27;;;25.20;;
24090;SDS011;12272;52.426;17.100;2022-12-20T19:50:29;45.90;;;26.93;;
24090;SDS011;12272;52.426;17.100;2022-12-20T19:55:31;55.60;;;26.37;;
24090;SDS011;12272;52.426;17.100;2022-12-20T20:00:34;49.83;;;27.37;;
24090;SDS011;12272;52.426;17.100;2022-12-20T20:05:37;47.03;;;25.50;;
24090;SDS011;12272;52.426;17.100;2022-12-20T20:10:42;57.00;;;29.90;;
24090;SDS011;12272;52.426;17.100;2022-12-20T20:15:49;70.55;;;35.13;;
24090;SDS011;12272;52.426;17.100;2022-12-20T20:20:53;83.20;;;37.90;;
24090;SDS011;12272;52.426;17.100;2022-12-20T20:25:56;64.47;;;37.80;;
24090;SDS011;12272;52.426;17.100;2022-12-20T20:30:59;60.43;;;29.43;;
24090;SDS011;12272;52.426;17.100;2022-12-20T20:36:03;50.13;;;27.30;;
24090;SDS011;12272;52.426;17.100;2022-12-20T20:41:07;51.50;;;28.03;;
24090;SDS011;12272;52.426;17.100;2022-12-20T20:46:11;48.33;;;27.30;;
24090;SDS011;12272;52.426;17.100;2022-12-20T20:51:15;44.57;;;25.30;;
24090;SDS011;12272;52.426;17.100;2022-12-20T20:56:17;44.70;;;23.20;;
24090;SDS011;12272;52.426;17.100;2022-12-20T21:01:20;42.37;;;24.90;;
24090;SDS011;12272;52.426;17.100;2022-12-20T21:06:29;44.07;;;25.80;;
24090;SDS011;12272;52.426;17.100;2022-12-20T21:11:42;50.53;;;27.33;;
24090;SDS011;12272;52.426;17.100;2022-12-20T21:16:45;55.57;;;29.73;;
24090;SDS011;12272;52.426;17.100;2022-12-20T21:21:48;44.93;;;26.87;;
24090;SDS011;12272;52.426;17.100;2022-12-20T21:26:51;60.00;;;33.10;;
24090;SDS011;12272;52.426;17.100;2022-12-20T21:31:56;65.27;;;31.73;;
24090;SDS011;12272;52.426;17.100;2022-12-20T21:36:58;52.83;;;30.53;;
24090;SDS011;12272;52.426;17.100;2022-12-20T21:42:01;51.70;;;28.77;;
24090;SDS011;12272;52.426;17.100;2022-12-20T21:47:03;53.10;;;28.93;;
24090;SDS011;12272;52.426;17.100;2022-12-20T21:52:06;52.93;;;29.63;;
24090;SDS011;12272;52.426;17.100;2022-12-20T21:57:09;49.50;;;27.47;;
24090;SDS011;12272;52.426;17.100;2022-12-20T22:02:12;39.00;;;23.43;;
24090;SDS011;12272;52.426;17.100;2022-12-20T22:07:15;51.97;;;28.47;;
24090;SDS011;12272;52.426;17.100;2022-12-20T22:12:18;51.87;;;28.03;;
24090;SDS011;12272;52.426;17.100;2022-12-20T22:17:20;53.67;;;29.63;;
24090;SDS011;12272;52.426;17.100;2022-12-20T22:22:24;55.33;;;29.27;;
24090;SDS011;12272;52.426;17.100;2022-12-20T22:27:26;49.97;;;29.07;;
24090;SDS011;12272;52.426;17.100;2022-12-20T22:32:30;49.97;;;28.43;;
24090;SDS011;12272;52.426;17.100;2022-12-20T22:37:33;56.37;;;29.40;;
24090;SDS011;12272;52.426;17.100;2022-12-20T22:42:39;57.97;;;32.03;;
24090;SDS011;12272;52.426;17.100;2022-12-20T22:47:41;55.23;;;30.60;;
24090;SDS011;12272;52.426;17.100;2022-12-20T22:52:44;52.90;;;28.23;;
24090;SDS011;12272;52.426;17.100;2022-12-20T22:57:47;53.10;;;28.47;;
24090;SDS011;12272;52.426;17.100;2022-12-20T23:02:49;53.77;;;30.10;;
24090;SDS011;12272;52.426;17.100;2022-12-20T23:07:52;53.00;;;29.30;;
24090;SDS011;12272;52.426;17.100;2022-12-20T23:12:55;52.13;;;29.13;;
24090;SDS011;12272;52.426;17.100;2022-12-20T23:18:19;56.33;;;30.77;;
24090;SDS011;12272;52.426;17.100;2022-12-20T23:23:22;61.63;;;32.13;;
24090;SDS011;12272;52.426;17.100;2022-12-20T23:28:24;56.40;;;30.43;;
24090;SDS011;12272;52.426;17.100;2022-12-20T23:33:27;51.50;;;28.40;;
24090;SDS011;12272;52.426;17.100;2022-12-20T23:38:33;56.30;;;30.57;;
24090;SDS011;12272;52.426;17.100;2022-12-20T23:43:37;57.47;;;30.90;;
24090;SDS011;12272;52.426;17.100;2022-12-20T23:48:40;56.23;;;29.43;;
24090;SDS011;12272;52.426;17.100;2022-12-20T23:53:43;55.67;;;29.27;;
24090;SDS011;12272;52.426;17.100;2022-12-20T23:58:49;45.13;;;26.47;;
